Time;durP1;ratioP1;P1;durP2;ratioP2;P2;SDS_P1;SDS_P2;PMS_P1;PMS_P2;Temp;Humidity;BMP_temperature;BMP_pressure;BME280_temperature;BME280_humidity;BME280_pressure;Samples;Min_cycle;Max_cycle;Signal;HPM_P1;HPM_P2
2023/09/04 00:02:22;;;;;;;8.90;3.40;;;;;;;16.69;78.27;94166.59;5085681;28;20020;-74
2023/09/04 00:04:48;;;;;;;8.32;2.95;;;;;;;16.44;78.49;94155.94;5085595;28;20222;-74
2023/09/04 00:07:13;;;;;;;4.40;2.38;;;;;;;16.36;78.37;94143.44;5085752;28;20062;-72
2023/09/04 00:09:39;;;;;;;7.53;2.10;;;;;;;16.37;81.13;94135.03;5085666;28;20095;-72
2023/09/04 00:12:05;;;;;;;11.68;3.47;;;;;;;16.36;81.87;94132.69;5085484;28;20111;-73
2023/09/04 00:14:31;;;;;;;10.13;3.00;;;;;;;16.30;83.19;94129.44;5085479;28;20032;-73
2023/09/04 00:16:56;;;;;;;5.57;2.55;;;;;;;16.28;84.43;94129.00;5085579;28;20013;-72
2023/09/04 00:19:21;;;;;;;6.28;2.50;;;;;;;16.29;83.42;94117.13;5085568;28;20036;-72
2023/09/04 00:21:47;;;;;;;10.35;2.40;;;;;;;16.31;81.86;94114.88;5085532;28;20339;-72
2023/09/04 00:24:12;;;;;;;6.20;3.05;;;;;;;16.36;81.65;94105.78;5067679;28;20104;-72
2023/09/04 00:26:38;;;;;;;8.52;2.55;;;;;;;16.43;81.12;94108.69;5085337;28;20058;-74
2023/09/04 00:29:03;;;;;;;5.65;2.70;;;;;;;16.45;80.31;94103.72;5085393;28;20341;-72
2023/09/04 00:31:28;;;;;;;7.32;2.83;;;;;;;16.49;80.91;94099.22;5085213;28;20086;-74
2023/09/04 00:33:54;;;;;;;4.60;3.03;;;;;;;16.55;82.39;94102.47;5085104;28;20275;-72
2023/09/04 00:36:19;;;;;;;10.77;3.05;;;;;;;16.56;82.86;94104.78;5067361;28;20023;-72
2023/09/04 00:38:45;;;;;;;4.57;2.85;;;;;;;16.61;80.09;94084.94;5085245;28;20253;-72
2023/09/04 00:41:10;;;;;;;7.85;3.28;;;;;;;16.70;81.49;94074.75;5085103;28;20028;-73
2023/09/04 00:43:36;;;;;;;6.32;3.40;;;;;;;16.83;82.94;94070.09;5085081;28;20130;-73
2023/09/04 00:46:03;;;;;;;10.77;3.35;;;;;;;16.90;84.61;94069.53;5084978;28;20020;-73
2023/09/04 00:48:30;;;;;;;6.30;3.53;;;;;;;16.97;85.78;94053.53;5084970;28;20107;-73
2023/09/04 00:50:56;;;;;;;8.52;3.88;;;;;;;17.01;nan;94060.56;5083987;28;20029;-73
2023/09/04 00:53:21;;;;;;;9.75;4.05;;;;;;;16.93;83.78;94049.97;5084708;28;20043;-73
2023/09/04 00:55:48;;;;;;;10.93;3.90;;;;;;;16.87;82.67;94049.44;5084921;28;20020;-73
2023/09/04 00:58:14;;;;;;;9.38;3.90;;;;;;;16.83;80.97;94041.31;5084782;28;20020;-73
2023/09/04 01:00:39;;;;;;;6.78;3.10;;;;;;;16.88;83.00;94040.25;5084781;28;20054;-73
2023/09/04 01:03:05;;;;;;;4.60;3.13;;;;;;;16.90;83.64;94039.91;5084714;28;20337;-73
2023/09/04 01:05:32;;;;;;;8.65;3.20;;;;;;;16.89;83.94;94036.41;5084679;28;20016;-73
2023/09/04 01:07:59;;;;;;;5.72;3.38;;;;;;;16.93;84.03;94039.97;5084514;28;20100;-74
2023/09/04 01:10:32;;;;;;;8.10;3.80;;;;;;;16.95;84.60;94043.09;5084381;28;20036;-73
2023/09/04 01:13:06;;;;;;;10.38;3.40;;;;;;;16.88;83.53;94034.88;5084426;28;20051;-73
2023/09/04 01:15:33;;;;;;;6.00;3.50;;;;;;;16.89;83.58;94031.03;5084359;28;20047;-73
2023/09/04 01:17:59;;;;;;;6.57;3.47;;;;;;;16.89;85.10;94030.25;5084448;28;20139;-73
2023/09/04 01:20:26;;;;;;;7.68;3.72;;;;;;;16.88;81.78;94028.72;5084278;28;20070;-73
2023/09/04 01:22:52;;;;;;;5.25;3.75;;;;;;;16.76;81.05;94029.53;5084180;28;20257;-73
2023/09/04 01:25:18;;;;;;;4.00;3.05;;;;;;;16.63;80.39;94021.56;5084222;28;20043;-73
2023/09/04 01:28:08;;;;;;;4.90;3.05;;;;;;;16.52;79.65;94020.50;5066569;28;20028;-73
2023/09/04 01:30:52;;;;;;;3.88;2.83;;;;;;;16.44;79.64;94011.50;5084016;28;20222;-73
2023/09/04 01:33:21;;;;;;;3.90;2.92;;;;;;;16.40;79.34;94007.13;5084043;28;20043;-73
2023/09/04 01:35:49;;;;;;;3.30;2.65;;;;;;;16.32;79.48;94008.84;5083944;28;20032;-73
2023/09/04 01:38:14;;;;;;;5.07;3.20;;;;;;;16.25;80.59;94006.75;5084134;28;20024;-74
2023/09/04 01:40:40;;;;;;;4.57;3.00;;;;;;;16.24;81.16;94002.53;5083986;28;20043;-73
2023/09/04 01:43:06;;;;;;;5.18;3.05;;;;;;;16.27;81.15;94005.66;5083994;28;20028;-74
2023/09/04 01:45:31;;;;;;;5.00;3.28;;;;;;;16.34;82.56;93998.53;5065835;28;20017;-74
2023/09/04 01:47:56;;;;;;;4.43;2.90;;;;;;;16.36;81.50;93998.97;5083863;28;20013;-73
2023/09/04 01:50:22;;;;;;;4.45;3.22;;;;;;;16.29;80.25;94001.47;5083793;28;20012;-74
2023/09/04 01:52:47;;;;;;;5.13;2.75;;;;;;;16.29;78.76;94000.72;5083569;28;20323;-74
2023/09/04 01:55:13;;;;;;;4.55;3.33;;;;;;;16.34;79.25;94000.44;5083722;28;20040;-74
2023/09/04 01:57:38;;;;;;;4.40;3.15;;;;;;;16.37;81.79;94011.28;5083722;28;20020;-73
2023/09/04 02:00:04;;;;;;;4.65;3.05;;;;;;;16.30;81.05;94011.09;5083544;28;20028;-73
2023/09/04 02:02:30;;;;;;;4.07;2.75;;;;;;;16.27;78.98;94013.72;5083357;28;20027;-73
2023/09/04 02:04:55;;;;;;;4.38;2.88;;;;;;;16.20;79.60;94004.34;5083386;28;20040;-73
2023/09/04 02:07:21;;;;;;;4.78;3.17;;;;;;;16.24;80.28;94017.84;5083717;28;20066;-73
2023/09/04 02:09:46;;;;;;;6.45;3.17;;;;;;;16.25;81.62;94008.69;5083531;28;20100;-73
2023/09/04 02:12:11;;;;;;;4.30;3.20;;;;;;;16.22;81.58;94014.72;5082240;28;20044;-73
2023/09/04 02:14:37;;;;;;;6.38;3.13;;;;;;;16.27;81.38;94011.03;5083039;28;20095;-73
2023/09/04 02:17:03;;;;;;;7.60;2.97;;;;;;;16.22;79.26;94009.34;5083429;28;20027;-74
2023/09/04 02:19:29;;;;;;;4.32;3.13;;;;;;;16.14;77.80;94019.16;5083350;28;20016;-73
2023/09/04 02:21:55;;;;;;;3.50;2.33;;;;;;;15.90;76.97;94009.31;5083302;28;20079;-73
2023/09/04 02:24:20;;;;;;;4.20;3.03;;;;;;;15.82;78.16;94013.69;5083174;28;20017;-73
2023/09/04 02:26:45;;;;;;;5.25;2.88;;;;;;;15.73;79.84;94015.72;5083376;28;20092;-74
2023/09/04 02:29:11;;;;;;;6.03;2.58;;;;;;;15.69;80.41;94006.75;5065296;28;20024;-74
2023/09/04 02:31:36;;;;;;;5.22;2.72;;;;;;;15.66;79.96;94007.44;5083229;28;20020;-73
2023/09/04 02:34:01;;;;;;;4.68;2.90;;;;;;;15.63;80.08;93997.38;5082979;28;20222;-73
2023/09/04 02:36:27;;;;;;;4.95;2.55;;;;;;;15.55;80.06;93992.91;5083206;28;20024;-73
2023/09/04 02:38:52;;;;;;;4.15;2.70;;;;;;;15.54;79.65;93994.06;5082999;28;20191;-74
2023/09/04 02:41:18;;;;;;;4.22;2.30;;;;;;;15.39;77.77;93999.03;5083048;28;20066;-74
2023/09/04 02:43:43;;;;;;;5.30;2.13;;;;;;;15.43;77.51;93999.13;5083054;28;20020;-74
2023/09/04 02:46:08;;;;;;;3.35;1.75;;;;;;;15.35;75.95;93997.38;5082948;28;20222;-73
2023/09/04 02:48:34;;;;;;;5.57;1.73;;;;;;;15.35;75.05;93997.38;5083006;28;20040;-73
2023/09/04 02:50:59;;;;;;;2.63;1.70;;;;;;;15.37;76.36;93990.53;5082943;28;20319;-73
2023/09/04 02:53:27;;;;;;;4.72;1.63;;;;;;;15.32;75.15;93996.13;5064901;28;20026;-73
2023/09/04 02:55:53;;;;;;;1.70;1.20;;;;;;;15.34;75.87;93998.47;5082943;28;20020;-73
2023/09/04 02:58:20;;;;;;;2.42;1.35;;;;;;;15.34;75.66;93993.88;5082762;28;20252;-73
2023/09/04 03:00:45;;;;;;;2.70;1.50;;;;;;;15.25;74.93;93993.25;5082908;28;20036;-73
2023/09/04 03:03:11;;;;;;;2.83;1.75;;;;;;;15.30;74.50;93986.84;5083023;28;20354;-73
2023/09/04 03:05:36;;;;;;;4.85;2.00;;;;;;;15.28;75.55;93984.50;5082747;28;20087;-74
2023/09/04 03:08:02;;;;;;;2.83;1.70;;;;;;;15.25;75.49;93993.25;5064915;28;20025;-74
2023/09/04 03:10:30;;;;;;;3.13;1.77;;;;;;;15.25;76.42;93987.88;5082542;28;20036;-74
2023/09/04 03:12:56;;;;;;;3.33;1.70;;;;;;;15.24;76.88;93986.28;5082726;28;20052;-74
2023/09/04 03:15:21;;;;;;;4.30;2.28;;;;;;;15.20;76.85;93994.25;5085871;28;20080;-74
2023/09/04 03:17:47;;;;;;;5.85;2.40;;;;;;;15.20;76.07;93982.72;5086864;28;20323;-74
2023/09/04 03:20:13;;;;;;;3.47;2.05;;;;;;;15.21;77.34;93981.63;5086681;28;20310;-74
2023/09/04 03:22:39;;;;;;;3.72;2.15;;;;;;;15.18;76.65;93980.41;5086682;28;20016;-75
2023/09/04 03:25:04;;;;;;;3.00;1.98;;;;;;;15.18;76.87;93976.91;5086501;28;20039;-75
2023/09/04 03:27:30;;;;;;;10.73;3.72;;;;;;;15.22;77.43;93980.47;5086164;28;20020;-75
2023/09/04 03:29:55;;;;;;;3.50;2.05;;;;;;;15.22;78.76;93972.44;5068485;28;20040;-74
2023/09/04 03:32:20;;;;;;;3.15;2.03;;;;;;;15.20;77.78;93977.34;5086314;28;20249;-75
2023/09/04 03:34:46;;;;;;;5.25;2.15;;;;;;;15.21;77.12;93979.69;5086508;28;20078;-73
2023/09/04 03:37:11;;;;;;;5.35;2.50;;;;;;;15.29;78.25;93994.13;5086356;28;20390;-73
2023/09/04 03:39:37;;;;;;;6.30;2.58;;;;;;;15.25;78.13;93991.34;5086038;28;20047;-73
2023/09/04 03:42:06;;;;;;;5.28;3.92;;;;;;;15.32;78.58;93993.44;5086292;28;20074;-73
2023/09/04 03:44:32;;;;;;;4.13;2.70;;;;;;;15.29;77.80;93996.03;5086176;28;20024;-74
2023/09/04 03:46:58;;;;;;;5.05;2.45;;;;;;;15.30;77.14;93997.59;5086073;28;20058;-73
2023/09/04 03:49:23;;;;;;;4.53;2.33;;;;;;;15.25;77.99;93998.63;5085953;28;20027;-73
2023/09/04 03:51:49;;;;;;;3.75;2.70;;;;;;;15.23;78.42;94001.63;5085973;28;20021;-73
2023/09/04 03:54:14;;;;;;;4.72;3.00;;;;;;;15.15;79.51;93997.16;5068014;28;20029;-73
2023/09/04 03:56:39;;;;;;;8.63;2.97;;;;;;;15.16;78.71;93997.94;5085914;28;20028;-73
2023/09/04 03:59:05;;;;;;;6.07;2.70;;;;;;;15.14;79.33;94000.19;5086033;28;20207;-73
2023/09/04 04:01:31;;;;;;;4.32;2.45;;;;;;;15.10;80.30;93996.59;5086041;28;20207;-73
2023/09/04 04:03:57;;;;;;;6.07;2.80;;;;;;;15.04;80.14;94002.22;5085731;28;20017;-74
2023/09/04 04:06:23;;;;;;;4.47;2.92;;;;;;;15.00;81.23;94003.22;5085820;28;20023;-73
2023/09/04 04:08:50;;;;;;;5.45;2.50;;;;;;;15.01;80.12;93996.75;5085722;28;20025;-73
2023/09/04 04:11:16;;;;;;;5.20;2.90;;;;;;;15.01;81.05;94002.88;5085727;28;20048;-75
2023/09/04 04:13:41;;;;;;;4.93;3.15;;;;;;;15.04;80.22;93996.84;5085684;28;20306;-75
2023/09/04 04:16:06;;;;;;;6.10;2.60;;;;;;;15.04;80.88;93996.06;5085514;28;20024;-75
2023/09/04 04:18:32;;;;;;;4.53;2.70;;;;;;;15.06;80.71;93993.81;5085376;28;20035;-75
2023/09/04 04:20:58;;;;;;;4.70;3.08;;;;;;;15.05;80.71;93994.94;5067674;28;20028;-75
2023/09/04 04:23:23;;;;;;;5.22;3.88;;;;;;;15.01;80.72;93994.84;5085415;28;20020;-73
2023/09/04 04:25:49;;;;;;;4.93;3.17;;;;;;;15.02;80.03;93996.41;5083865;28;20032;-75
2023/09/04 04:28:20;;;;;;;7.55;3.22;;;;;;;14.99;80.19;94001.66;5067602;28;20036;-74
2023/09/04 04:30:45;;;;;;;6.18;3.10;;;;;;;15.00;80.57;93995.97;5085340;28;20027;-74
2023/09/04 04:33:12;;;;;;;4.07;2.85;;;;;;;14.96;79.92;93999.63;5085295;28;20223;-74
2023/09/04 04:35:38;;;;;;;6.38;3.05;;;;;;;14.94;79.84;93993.81;5085115;28;20020;-74
2023/09/04 04:38:04;;;;;;;5.15;2.42;;;;;;;14.87;79.79;93997.06;5084806;28;20027;-74
2023/09/04 04:40:29;;;;;;;3.47;2.35;;;;;;;14.81;78.58;93999.19;5085019;28;20024;-75
2023/09/04 04:42:56;;;;;;;3.50;2.45;;;;;;;14.82;79.53;93995.41;5085067;28;20024;-73
2023/09/04 04:45:22;;;;;;;4.15;2.80;;;;;;;14.83;79.34;93990.81;5084719;28;20035;-73
2023/09/04 04:47:48;;;;;;;4.68;2.15;;;;;;;14.71;78.40;93998.88;5083687;28;20021;-73
2023/09/04 04:50:13;;;;;;;3.15;1.73;;;;;;;14.69;78.62;93990.38;5065273;28;20101;-73
2023/09/04 04:52:39;;;;;;;4.93;1.67;;;;;;;14.61;79.14;93987.47;5082885;28;20334;-73
2023/09/04 04:55:05;;;;;;;3.38;1.67;;;;;;;14.62;77.64;93997.09;5082842;28;20118;-73
2023/09/04 04:57:32;;;;;;;5.30;1.83;;;;;;;14.58;77.85;93995.41;5082966;28;20024;-73
2023/09/04 04:59:57;;;;;;;2.90;1.50;;;;;;;14.51;77.58;93993.25;5083795;28;20021;-74
2023/09/04 05:02:23;;;;;;;4.57;1.77;;;;;;;14.47;77.37;93995.03;5082729;28;20091;-74
2023/09/04 05:04:48;;;;;;;4.78;1.60;;;;;;;14.45;77.13;93992.69;5082597;28;20032;-73
2023/09/04 05:07:14;;;;;;;3.15;1.73;;;;;;;14.48;76.70;93999.28;5082736;28;20020;-73
2023/09/04 05:09:40;;;;;;;2.55;1.50;;;;;;;14.53;77.41;93999.06;5082426;28;20051;-73
2023/09/04 05:12:06;;;;;;;2.83;1.75;;;;;;;14.63;77.64;93987.94;5064762;28;20048;-73
2023/09/04 05:14:32;;;;;;;4.18;1.90;;;;;;;14.66;76.83;93974.97;5082862;28;20031;-73
2023/09/04 05:16:57;;;;;;;3.75;2.15;;;;;;;14.59;75.12;93991.59;5084034;28;20091;-72
2023/09/04 05:19:22;;;;;;;4.85;1.50;;;;;;;14.64;75.64;93984.13;5083983;28;20196;-72
2023/09/04 05:21:48;;;;;;;6.63;1.90;;;;;;;14.70;75.90;93983.91;5084221;28;20070;-73
2023/09/04 05:24:13;;;;;;;6.40;1.75;;;;;;;14.71;75.62;93985.47;5084203;28;20021;-73
2023/09/04 05:26:39;;;;;;;7.00;1.95;;;;;;;14.74;74.99;94003.59;5084163;28;20031;-73
2023/09/04 05:29:05;;;;;;;3.53;1.63;;;;;;;14.70;76.02;93991.97;5066089;28;20095;-74
2023/09/04 05:31:30;;;;;;;4.20;1.90;;;;;;;14.67;75.25;93988.03;5083989;28;20025;-73
2023/09/04 05:33:55;;;;;;;2.95;1.80;;;;;;;14.66;75.85;93985.69;5083697;28;20028;-73
2023/09/04 05:36:21;;;;;;;6.13;2.28;;;;;;;14.68;75.33;93983.47;5083549;28;20024;-74
2023/09/04 05:38:46;;;;;;;3.53;2.25;;;;;;;14.70;75.54;93983.91;5083543;28;20054;-73
2023/09/04 05:41:12;;;;;;;6.53;2.55;;;;;;;14.76;74.52;93977.19;5083899;28;20044;-73
2023/09/04 05:43:38;;;;;;;4.93;2.33;;;;;;;14.69;73.76;93976.97;5083645;28;20054;-73
2023/09/04 05:46:03;;;;;;;4.90;2.42;;;;;;;14.68;73.25;93975.41;5083647;28;20230;-73
2023/09/04 05:48:31;;;;;;;6.78;2.30;;;;;;;14.70;72.44;93965.13;5083420;28;20066;-73
2023/09/04 05:50:57;;;;;;;3.42;2.17;;;;;;;14.74;72.05;93976.75;5083559;28;20027;-73
2023/09/04 05:53:24;;;;;;;3.72;2.50;;;;;;;14.71;73.02;93972.03;5083358;28;20056;-73
2023/09/04 05:56:06;;;;;;;4.85;2.28;;;;;;;14.73;72.75;93985.91;5083396;28;20400;-73
2023/09/04 05:58:31;;;;;;;5.72;2.67;;;;;;;14.69;71.55;93972.38;5083404;28;20087;-73
2023/09/04 06:00:57;;;;;;;3.58;2.30;;;;;;;14.54;72.23;93967.66;5083409;28;20028;-72
2023/09/04 06:03:23;;;;;;;2.60;1.98;;;;;;;14.62;71.24;93966.81;5083185;28;20315;-72
2023/09/04 06:05:48;;;;;;;7.22;2.60;;;;;;;14.62;71.52;93962.22;5083280;28;20028;-72
2023/09/04 06:08:15;;;;;;;3.80;2.15;;;;;;;14.66;71.55;93969.59;5083510;28;20020;-72
2023/09/04 06:10:41;;;;;;;4.80;2.72;;;;;;;14.58;71.81;93968.59;5083153;28;20044;-72
2023/09/04 06:13:06;;;;;;;4.13;2.42;;;;;;;14.63;71.98;93976.41;5083068;28;20033;-72
2023/09/04 06:15:32;;;;;;;3.80;2.50;;;;;;;14.61;72.36;93966.03;5083055;28;20251;-72
2023/09/04 06:17:58;;;;;;;3.92;2.53;;;;;;;14.62;72.59;93967.56;5083508;28;20091;-91
2023/09/04 06:20:23;;;;;;;4.05;2.72;;;;;;;14.61;71.85;93963.34;5066450;28;20354;-89
2023/09/04 06:22:48;;;;;;;4.35;2.53;;;;;;;14.67;70.93;93971.16;5084278;28;20020;-90
2023/09/04 06:25:14;;;;;;;7.85;2.60;;;;;;;14.61;71.72;93968.72;5084286;28;20315;-90
2023/09/04 06:27:39;;;;;;;4.10;2.08;;;;;;;14.57;71.67;93967.81;5066114;28;20021;-89
2023/09/04 06:30:06;;;;;;;6.40;2.45;;;;;;;14.51;71.17;93966.44;5066340;28;20016;-87
2023/09/04 06:32:32;;;;;;;5.13;2.55;;;;;;;14.52;71.54;93973.34;5083481;28;20036;-91
2023/09/04 06:34:58;;;;;;;3.60;2.38;;;;;;;14.54;72.18;93979.16;5083894;28;20048;-93
2023/09/04 06:37:25;;;;;;;5.10;2.53;;;;;;;14.54;71.51;93973.81;5084609;28;20024;-90
2023/09/04 06:39:50;;;;;;;3.17;2.20;;;;;;;14.52;71.71;93981.41;5083871;28;20104;-91
2023/09/04 06:42:15;;;;;;;4.72;2.72;;;;;;;14.50;69.84;93977.50;5083722;28;20028;-90
2023/09/04 06:44:41;;;;;;;8.18;3.00;;;;;;;14.55;70.71;93986.13;5065990;28;20052;-89
2023/09/04 06:47:06;;;;;;;3.70;2.60;;;;;;;14.61;69.53;93979.44;5066306;28;20016;-90
2023/09/04 06:49:32;;;;;;;3.83;2.38;;;;;;;14.71;70.29;93990.81;5065049;28;20319;-88
2023/09/04 06:51:58;;;;;;;3.60;2.53;;;;;;;14.82;69.69;93991.97;5083468;28;20032;-88
2023/09/04 06:54:24;;;;;;;4.63;2.83;;;;;;;14.81;68.26;93985.78;5065666;28;20032;-89
2023/09/04 06:56:49;;;;;;;4.43;2.80;;;;;;;14.89;69.25;93986.00;5083295;28;20097;-85
2023/09/04 06:59:15;;;;;;;2.97;2.30;;;;;;;14.97;67.76;93985.13;5083278;28;20036;-86
2023/09/04 07:01:41;;;;;;;5.28;2.72;;;;;;;14.93;68.02;93978.84;5065749;28;20033;-90
2023/09/04 07:04:07;;;;;;;6.05;2.85;;;;;;;15.02;68.42;93977.63;5083570;28;20040;-89
2023/09/04 07:06:32;;;;;;;7.72;2.35;;;;;;;15.14;69.50;93984.06;5065903;28;20031;-89
2023/09/04 07:08:57;;;;;;;6.00;2.47;;;;;;;15.22;68.15;93988.53;5083835;28;20024;-88
2023/09/04 07:11:23;;;;;;;3.83;2.60;;;;;;;15.17;68.08;94002.97;5083034;28;20108;-88
2023/09/04 07:13:48;;;;;;;4.70;2.30;;;;;;;15.18;67.88;93993.00;5083011;28;20196;-87
2023/09/04 07:16:14;;;;;;;6.88;2.97;;;;;;;15.22;68.29;94000.06;5083449;28;20247;-87
2023/09/04 07:18:40;;;;;;;5.78;2.95;;;;;;;15.30;68.00;93993.00;5083099;28;20091;-87
2023/09/04 07:21:05;;;;;;;4.43;2.40;;;;;;;15.37;67.73;93995.91;5065542;28;20462;-87
2023/09/04 07:23:31;;;;;;;3.17;2.13;;;;;;;15.34;67.07;94009.22;5083238;28;20011;-91
2023/09/04 07:25:57;;;;;;;6.22;2.70;;;;;;;15.28;66.96;94005.97;5082697;28;20016;-88
2023/09/04 07:28:22;;;;;;;4.47;2.90;;;;;;;15.23;67.31;94001.63;5083050;28;20024;-86
2023/09/04 07:30:48;;;;;;;6.03;2.38;;;;;;;15.22;66.67;94007.31;5065813;28;20051;-89
2023/09/04 07:33:13;;;;;;;4.15;2.85;;;;;;;15.31;68.58;94009.91;5065550;28;20043;-87
2023/09/04 07:35:40;;;;;;;9.98;2.80;;;;;;;15.35;66.90;94014.25;5083034;28;20052;-86
2023/09/04 07:38:06;;;;;;;5.60;2.60;;;;;;;15.35;67.35;94016.16;5083130;28;20111;-87
2023/09/04 07:40:33;;;;;;;7.93;3.08;;;;;;;15.37;68.57;94014.69;5082727;28;20024;-86
2023/09/04 07:42:59;;;;;;;4.53;2.70;;;;;;;15.36;67.89;94023.84;5065170;28;20024;-88
2023/09/04 07:45:25;;;;;;;3.80;3.10;;;;;;;15.28;68.64;94013.25;5083279;28;20025;-91
2023/09/04 07:47:50;;;;;;;7.97;3.30;;;;;;;15.23;69.51;94008.91;5065937;28;20028;-91
2023/09/04 07:50:16;;;;;;;4.47;3.10;;;;;;;15.29;69.56;94012.94;5065874;28;20028;-89
2023/09/04 07:53:23;;;;;;;4.55;2.72;;;;;;;15.31;69.02;94016.06;5066773;28;20031;-89
2023/09/04 07:55:49;;;;;;;5.40;4.35;;;;;;;15.28;70.10;94016.72;5016261;28;20028;-81
2023/09/04 07:58:15;;;;;;;6.93;4.00;;;;;;;15.26;69.92;94002.84;5064282;28;20047;-81
2023/09/04 08:00:48;;;;;;;8.18;3.42;;;;;;;15.39;69.45;94012.44;5084147;28;20032;-81
2023/09/04 08:03:14;;;;;;;5.75;3.17;;;;;;;15.43;68.82;94005.28;5085896;28;20039;-84
2023/09/04 08:05:40;;;;;;;4.90;3.10;;;;;;;15.58;68.28;94005.69;5085784;28;20021;-84
2023/09/04 08:08:10;;;;;;;4.60;3.30;;;;;;;15.58;68.24;94005.69;5085779;28;20020;-82
2023/09/04 08:10:42;;;;;;;5.30;3.47;;;;;;;15.63;69.19;94010.81;5085734;28;20044;-86
2023/09/04 08:13:12;;;;;;;6.95;3.25;;;;;;;15.63;67.79;94005.44;5085412;28;20327;-86
2023/09/04 08:15:38;;;;;;;4.47;2.90;;;;;;;15.76;68.42;94011.59;5067549;28;20153;-83
2023/09/04 08:18:05;;;;;;;14.70;3.92;;;;;;;15.80;68.43;94017.84;5067950;28;20024;-84
2023/09/04 08:20:30;;;;;;;11.00;3.10;;;;;;;15.91;68.50;94013.53;5085541;28;20114;-84
2023/09/04 08:22:55;;;;;;;5.10;2.92;;;;;;;16.05;67.73;94021.22;5086027;28;20218;-90
2023/09/04 08:25:21;;;;;;;7.30;3.63;;;;;;;16.00;66.48;94019.56;5086882;28;20016;-89
2023/09/04 08:27:46;;;;;;;4.07;2.80;;;;;;;15.88;66.53;94016.16;5069114;28;20031;-91
2023/09/04 08:30:12;;;;;;;6.68;3.08;;;;;;;15.74;67.00;94020.00;5086965;28;20059;-89
2023/09/04 08:32:37;;;;;;;4.60;3.22;;;;;;;15.65;67.37;94019.31;5086652;28;20047;-89
2023/09/04 08:35:04;;;;;;;6.82;3.67;;;;;;;15.64;67.69;94010.47;5068826;28;20023;-88
2023/09/04 08:37:29;;;;;;;4.97;2.85;;;;;;;15.66;67.30;94004.75;5085949;28;20020;-90
2023/09/04 08:39:55;;;;;;;5.13;3.65;;;;;;;15.77;67.48;94011.25;5086455;28;20047;-88
2023/09/04 08:42:20;;;;;;;7.63;3.45;;;;;;;15.89;67.64;94007.72;5068575;28;20016;-87
2023/09/04 08:44:49;;;;;;;6.10;3.88;;;;;;;16.01;68.18;94002.28;5087419;28;20019;-94
2023/09/04 08:47:16;;;;;;;6.95;4.15;;;;;;;16.11;66.70;94013.69;5069970;28;20330;-91
2023/09/04 08:49:43;;;;;;;4.97;3.47;;;;;;;16.05;65.75;94011.22;5069567;28;20058;-91
2023/09/04 08:52:09;;;;;;;7.20;4.00;;;;;;;16.08;66.62;94008.97;5070806;28;20046;-94
2023/09/04 08:54:35;;;;;;;14.20;3.97;;;;;;;16.11;66.90;94001.00;5087916;28;20139;-89
2023/09/04 08:57:01;;;;;;;9.52;4.07;;;;;;;16.12;67.02;94010.66;5070290;28;20032;-93
2023/09/04 08:59:27;;;;;;;4.97;3.67;;;;;;;16.11;66.08;94021.75;5072459;28;20099;-90
2023/09/04 09:01:54;;;;;;;7.75;4.05;;;;;;;16.03;66.99;94020.78;5091043;28;20025;-86
2023/09/04 09:04:21;;;;;;;6.63;4.10;;;;;;;15.99;67.21;94022.59;5085404;28;20035;-84
2023/09/04 09:06:48;;;;;;;8.48;3.88;;;;;;;16.05;66.59;94021.97;5085024;28;20253;-83
2023/09/04 09:09:15;;;;;;;5.85;3.45;;;;;;;16.11;66.90;94025.22;5067151;28;20039;-86
2023/09/04 09:11:42;;;;;;;5.28;3.75;;;;;;;16.14;67.33;94024.53;5084142;28;20052;-87
2023/09/04 09:14:08;;;;;;;4.88;3.60;;;;;;;16.20;66.93;94025.84;5067142;28;20026;-86
2023/09/04 09:16:34;;;;;;;5.53;3.35;;;;;;;16.22;67.12;94026.28;5085045;28;20016;-86
2023/09/04 09:19:02;;;;;;;5.05;3.55;;;;;;;16.12;67.14;94021.41;5067108;28;20135;-85
2023/09/04 09:21:29;;;;;;;6.00;4.32;;;;;;;16.10;66.28;94031.72;5084866;28;20043;-84
2023/09/04 09:24:13;;;;;;;5.50;4.05;;;;;;;16.07;66.60;94027.03;5084598;28;20035;-82
2023/09/04 09:26:41;;;;;;;12.73;4.93;;;;;;;16.13;67.01;94032.94;5084600;28;20040;-83
2023/09/04 09:29:08;;;;;;;8.15;3.95;;;;;;;16.16;67.25;94024.97;5084402;28;20100;-83
2023/09/04 09:31:36;;;;;;;10.13;4.43;;;;;;;16.19;67.19;94034.25;5084203;28;20246;-83
2023/09/04 09:34:01;;;;;;;5.38;3.78;;;;;;;16.24;67.46;94034.00;5084009;28;20091;-84
2023/09/04 09:36:28;;;;;;;9.93;3.92;;;;;;;16.24;66.04;94040.19;5084022;28;20020;-84
2023/09/04 09:38:54;;;;;;;6.43;4.28;;;;;;;16.24;66.31;94031.31;5083789;28;20360;-83
2023/09/04 09:41:19;;;;;;;10.43;4.38;;;;;;;16.30;67.08;94034.53;5083877;28;20017;-85
2023/09/04 09:43:45;;;;;;;9.68;4.50;;;;;;;16.22;66.38;94026.28;5083101;28;20013;-84
2023/09/04 09:46:10;;;;;;;8.18;4.53;;;;;;;16.22;67.03;94026.28;5083704;28;20332;-83
2023/09/04 09:48:36;;;;;;;7.65;4.32;;;;;;;16.18;67.99;94024.63;5084193;28;20255;-83
2023/09/04 09:51:06;;;;;;;5.25;4.05;;;;;;;16.25;67.58;94028.28;5083572;28;20047;-86
2023/09/04 09:53:48;;;;;;;6.28;4.30;;;;;;;16.27;67.84;94025.25;5083563;28;20036;-84
2023/09/04 09:56:16;;;;;;;11.38;4.60;;;;;;;16.32;67.81;94018.84;5083796;28;20095;-84
2023/09/04 09:58:45;;;;;;;9.07;3.97;;;;;;;16.37;67.33;94019.38;5083694;28;20031;-83
2023/09/04 10:01:11;;;;;;;7.32;4.50;;;;;;;16.35;66.42;94028.91;5065534;28;20090;-81
2023/09/04 10:03:38;;;;;;;9.63;4.75;;;;;;;16.33;66.65;94020.41;5083273;28;20024;-82
2023/09/04 10:06:04;;;;;;;6.53;4.38;;;;;;;16.33;66.80;94015.03;5083235;28;20021;-82
2023/09/04 10:08:36;;;;;;;20.75;5.40;;;;;;;16.40;67.07;94025.97;5083432;28;20021;-81
2023/09/04 10:11:06;;;;;;;7.40;4.65;;;;;;;16.38;67.31;94014.75;5065730;28;20048;-86
2023/09/04 10:13:36;;;;;;;9.60;5.43;;;;;;;16.40;67.82;94021.34;5065992;28;20089;-86
2023/09/04 10:16:06;;;;;;;10.30;5.50;;;;;;;16.40;67.18;94010.59;5065924;28;20025;-85
2023/09/04 10:18:33;;;;;;;13.82;5.00;;;;;;;16.51;68.07;94018.19;5082699;28;20029;-86
2023/09/04 10:20:59;;;;;;;8.07;5.15;;;;;;;16.55;67.06;94016.34;5065898;28;20322;-86
2023/09/04 10:23:34;;;;;;;8.80;5.60;;;;;;;16.64;67.04;94004.28;5083697;28;20035;-86
2023/09/04 10:26:11;;;;;;;6.65;4.82;;;;;;;16.74;66.20;94018.34;5065495;28;20020;-86
2023/09/04 10:28:39;;;;;;;9.55;5.18;;;;;;;16.74;66.02;94010.28;5084184;28;20219;-91
2023/09/04 10:31:06;;;;;;;11.25;5.38;;;;;;;16.81;66.15;94018.53;5084496;28;20021;-91
2023/09/04 10:33:32;;;;;;;11.48;4.80;;;;;;;16.81;65.96;94016.63;5084491;28;20024;-91
2023/09/04 10:36:11;;;;;;;;;;;;;;;;;;;;;
2023/09/04 10:38:37;;;;;;;8.40;4.75;;;;;;;16.82;66.81;94014.72;5084653;28;20052;-92
2023/09/04 10:41:07;;;;;;;8.38;5.13;;;;;;;16.89;69.96;94025.66;5066574;28;20310;-92
2023/09/04 10:43:40;;;;;;;10.18;6.22;;;;;;;16.93;70.17;94026.50;5084827;28;20020;-92
2023/09/04 10:46:09;;;;;;;11.48;6.60;;;;;;;16.97;71.20;94024.69;5084030;28;20307;-92
2023/09/04 10:48:49;;;;;;;9.23;6.35;;;;;;;16.99;71.77;94027.03;5084642;28;20023;-91
2023/09/04 10:51:35;;;;;;;10.52;6.97;;;;;;;16.94;73.19;94030.78;5066342;28;20033;-91
2023/09/04 10:54:29;;;;;;;11.68;6.63;;;;;;;16.89;73.85;94028.34;5066133;28;20024;-92
2023/09/04 10:57:22;;;;;;;16.67;6.50;;;;;;;16.89;75.14;94035.63;5084109;28;20024;-91
2023/09/04 10:59:54;;;;;;;16.30;7.53;;;;;;;16.87;74.15;94030.59;5082210;28;20029;-86
2023/09/04 11:02:36;;;;;;;11.48;7.18;;;;;;;16.90;74.76;94029.91;5082872;28;20027;-86
2023/09/04 11:05:03;;;;;;;10.85;7.53;;;;;;;16.82;74.57;94036.25;5064856;28;20208;-85
2023/09/04 11:07:30;;;;;;;12.95;7.35;;;;;;;16.80;75.17;94033.09;5064650;28;20091;-81
2023/09/04 11:10:06;;;;;;;11.07;6.05;;;;;;;16.78;73.95;94038.06;5064646;28;20029;-81
2023/09/04 11:12:36;;;;;;;12.18;7.15;;;;;;;16.74;74.67;94031.81;5082568;28;20376;-82
2023/09/04 11:15:10;;;;;;;9.73;5.85;;;;;;;16.76;75.02;94038.41;5064659;28;20031;-81
2023/09/04 11:17:38;;;;;;;10.13;6.82;;;;;;;16.75;73.84;94041.44;5082576;28;20024;-81
2023/09/04 11:20:04;;;;;;;10.60;7.35;;;;;;;16.81;75.80;94040.06;5064632;28;20091;-81
2023/09/04 11:22:33;;;;;;;13.13;7.45;;;;;;;16.80;75.78;94033.09;5082940;28;20025;-87
2023/09/04 11:24:58;;;;;;;18.63;8.68;;;;;;;16.83;78.38;94037.81;5083518;28;20017;-88
2023/09/04 11:27:25;;;;;;;21.08;8.57;;;;;;;16.83;78.20;94040.50;5083102;28;20028;-86
2023/09/04 11:29:51;;;;;;;14.48;8.10;;;;;;;16.82;77.34;94034.34;5082598;28;20231;-86
2023/09/04 11:32:18;;;;;;;13.20;8.25;;;;;;;16.77;77.92;94028.41;5083189;28;20024;-86
2023/09/04 11:34:49;;;;;;;11.30;6.10;;;;;;;16.75;78.81;94033.34;5065965;28;20024;-88